Time;durP1;ratioP1;P1;durP2;ratioP2;P2;SDS_P1;SDS_P2;PMS_P1;PMS_P2;Temp;Humidity;BMP_temperature;BMP_pressure;BME280_temperature;BME280_humidity;BME280_pressure;Samples;Min_cycle;Max_cycle;Signal;HPM_P1;HPM_P2
2023/08/16 00:00:31;;;;;;;8.30;5.43;;;;;;;;;;5016048;28;25157;-76
2023/08/16 00:02:57;;;;;;;9.10;5.38;;;;;;;;;;5010251;28;25059;-77
2023/08/16 00:05:24;;;;;;;10.75;5.80;;;;;;;;;;5006012;28;25049;-76
2023/08/16 00:07:50;;;;;;;8.73;5.20;;;;;;;;;;5020994;28;25059;-75
2023/08/16 00:10:16;;;;;;;10.27;5.70;;;;;;;;;;5015919;28;25074;-76
2023/08/16 00:12:42;;;;;;;8.93;5.85;;;;;;;;;;5023463;28;25061;-75
2023/08/16 00:15:08;;;;;;;14.55;7.05;;;;;;;;;;5010299;28;25168;-76
2023/08/16 00:17:34;;;;;;;9.15;6.30;;;;;;;;;;5017152;28;25105;-75
2023/08/16 00:20:00;;;;;;;10.15;6.90;;;;;;;;;;5019115;28;25069;-77
2023/08/16 00:22:26;;;;;;;13.13;7.07;;;;;;;;;;5003468;28;25173;-76
2023/08/16 00:24:52;;;;;;;13.70;6.88;;;;;;;;;;5021065;28;25092;-76
2023/08/16 00:27:18;;;;;;;10.60;6.90;;;;;;;;;;5014814;28;25127;-78
2023/08/16 00:29:44;;;;;;;12.40;6.63;;;;;;;;;;5012703;28;25103;-76
2023/08/16 00:32:11;;;;;;;12.93;7.22;;;;;;;;;;5008181;28;25073;-76
2023/08/16 00:34:37;;;;;;;13.02;7.43;;;;;;;;;;5013356;28;25051;-77
2023/08/16 00:37:03;;;;;;;14.85;7.68;;;;;;;;;;5011518;28;25072;-76
2023/08/16 00:39:29;;;;;;;10.23;7.07;;;;;;;;;;5020756;28;25075;-75
2023/08/16 00:41:55;;;;;;;11.35;7.22;;;;;;;;;;5015986;28;25091;-78
2023/08/16 00:44:21;;;;;;;12.40;7.22;;;;;;;;;;5014159;28;25099;-75
2023/08/16 00:46:47;;;;;;;10.68;7.55;;;;;;;;;;5002022;28;25067;-75
2023/08/16 00:49:13;;;;;;;12.10;7.32;;;;;;;;;;5010993;28;25043;-75
2023/08/16 00:51:39;;;;;;;15.18;8.05;;;;;;;;;;5010731;28;25042;-74
2023/08/16 00:54:05;;;;;;;14.63;7.80;;;;;;;;;;5013523;28;25065;-75
2023/08/16 00:56:32;;;;;;;10.57;8.10;;;;;;;;;;5007590;28;25053;-77
2023/08/16 00:58:58;;;;;;;13.30;7.53;;;;;;;;;;5016169;28;25069;-77
2023/08/16 01:01:24;;;;;;;11.88;7.95;;;;;;;;;;5015069;28;25064;-75
2023/08/16 01:03:50;;;;;;;11.00;7.65;;;;;;;;;;5014125;28;25081;-75
2023/08/16 01:06:16;;;;;;;12.98;8.38;;;;;;;;;;5019764;28;25087;-74
2023/08/16 01:08:42;;;;;;;19.13;9.52;;;;;;;;;;5021859;28;25067;-74
2023/08/16 01:11:27;;;;;;;18.48;8.80;;;;;;;;;;5018528;28;25076;-75
2023/08/16 01:14:07;;;;;;;14.15;8.65;;;;;;;;;;5009524;28;25129;-75
2023/08/16 01:16:34;;;;;;;12.45;8.70;;;;;;;;;;5013811;28;25149;-75
2023/08/16 01:19:01;;;;;;;11.93;8.80;;;;;;;;;;5012036;28;25079;-74
2023/08/16 01:21:28;;;;;;;12.32;8.60;;;;;;;;;;5016897;28;25087;-75
2023/08/16 01:24:00;;;;;;;14.90;8.70;;;;;;;;;;5010659;28;25083;-74
2023/08/16 01:26:26;;;;;;;13.45;9.20;;;;;;;;;;5010826;28;25085;-76
2023/08/16 01:28:53;;;;;;;13.27;9.25;;;;;;;;;;5022459;28;25066;-75
2023/08/16 01:31:19;;;;;;;12.27;9.13;;;;;;;;;;5028966;28;25073;-76
2023/08/16 01:33:45;;;;;;;12.10;8.38;;;;;;;;;;5024305;28;25085;-76
2023/08/16 01:36:11;;;;;;;18.75;9.25;;;;;;;;;;5015724;28;25052;-76
2023/08/16 01:38:37;;;;;;;13.05;8.32;;;;;;;;;;5005953;28;25117;-77
2023/08/16 01:41:08;;;;;;;14.43;9.32;;;;;;;;;;5012469;28;25062;-77
2023/08/16 01:43:34;;;;;;;13.37;9.63;;;;;;;;;;5005892;28;25087;-75
2023/08/16 01:46:02;;;;;;;14.52;9.30;;;;;;;;;;5013490;28;25104;-76
2023/08/16 01:48:28;;;;;;;14.48;9.68;;;;;;;;;;5013751;28;25093;-74
2023/08/16 01:50:54;;;;;;;14.60;9.18;;;;;;;;;;5026239;28;25062;-76
2023/08/16 01:53:20;;;;;;;15.52;8.55;;;;;;;;;;5026009;28;25083;-76
2023/08/16 01:55:46;;;;;;;13.55;8.27;;;;;;;;;;5021564;28;25059;-77
2023/08/16 01:58:13;;;;;;;16.95;10.05;;;;;;;;;;5019957;28;25077;-76
2023/08/16 02:00:39;;;;;;;19.17;9.18;;;;;;;;;;5011536;28;25064;-75
2023/08/16 02:03:05;;;;;;;13.55;9.27;;;;;;;;;;5012436;28;25067;-78
2023/08/16 02:05:31;;;;;;;16.30;10.73;;;;;;;;;;5010213;28;25147;-74
2023/08/16 02:07:56;;;;;;;19.10;11.98;;;;;;;;;;5016859;28;25071;-78
2023/08/16 02:10:22;;;;;;;15.73;10.20;;;;;;;;;;5010539;28;25097;-77
2023/08/16 02:12:48;;;;;;;18.88;11.18;;;;;;;;;;5023237;28;25067;-75
2023/08/16 02:15:14;;;;;;;17.73;12.52;;;;;;;;;;5020901;28;25108;-75
2023/08/16 02:17:41;;;;;;;22.40;13.35;;;;;;;;;;5007563;28;25086;-74
2023/08/16 02:20:08;;;;;;;18.17;12.15;;;;;;;;;;5015040;28;25069;-76
2023/08/16 02:22:34;;;;;;;16.77;11.68;;;;;;;;;;5018219;28;25104;-76
2023/08/16 02:25:00;;;;;;;22.08;13.70;;;;;;;;;;5015852;28;25052;-74
2023/08/16 02:27:26;;;;;;;16.95;12.82;;;;;;;;;;5024511;28;25103;-76
2023/08/16 02:29:52;;;;;;;21.55;12.45;;;;;;;;;;5019078;28;25057;-74
2023/08/16 02:32:18;;;;;;;19.65;12.93;;;;;;;;;;5021083;28;25061;-76
2023/08/16 02:34:46;;;;;;;18.50;12.32;;;;;;;;;;5014316;28;25113;-76
2023/08/16 02:37:12;;;;;;;19.08;11.95;;;;;;;;;;5013577;28;25052;-75
2023/08/16 02:39:38;;;;;;;16.50;11.50;;;;;;;;;;5013776;28;25090;-75
2023/08/16 02:42:04;;;;;;;17.52;12.18;;;;;;;;;;5016850;28;25132;-80
2023/08/16 02:44:30;;;;;;;17.42;12.70;;;;;;;;;;5029331;28;25105;-76
2023/08/16 02:46:55;;;;;;;16.17;12.10;;;;;;;;;;5016048;28;25068;-78
2023/08/16 02:49:21;;;;;;;16.92;12.05;;;;;;;;;;5008045;28;25145;-75
2023/08/16 02:51:48;;;;;;;20.98;12.65;;;;;;;;;;5003946;28;25138;-77
2023/08/16 02:54:14;;;;;;;19.65;13.73;;;;;;;;;;5015338;28;25067;-73
2023/08/16 02:56:40;;;;;;;21.85;14.05;;;;;;;;;;5013242;28;25065;-76
2023/08/16 02:59:09;;;;;;;20.13;13.82;;;;;;;;;;5005166;28;25115;-77
2023/08/16 03:01:35;;;;;;;17.35;12.82;;;;;;;;;;5021062;28;25058;-75
2023/08/16 03:04:01;;;;;;;18.27;12.85;;;;;;;;;;5019355;28;25076;-76
2023/08/16 03:06:27;;;;;;;20.08;13.65;;;;;;;;;;5007276;28;25052;-77
2023/08/16 03:08:53;;;;;;;18.83;13.25;;;;;;;;;;5021963;28;25042;-77
2023/08/16 03:11:19;;;;;;;18.35;12.40;;;;;;;;;;5012497;28;25130;-75
2023/08/16 03:13:45;;;;;;;16.83;11.82;;;;;;;;;;5014553;28;25052;-76
2023/08/16 03:16:11;;;;;;;15.93;12.05;;;;;;;;;;5012047;28;25065;-75
2023/08/16 03:18:37;;;;;;;20.08;12.38;;;;;;;;;;5018501;28;25072;-78
2023/08/16 03:21:03;;;;;;;18.98;12.35;;;;;;;;;;5012335;28;25061;-77
2023/08/16 03:23:29;;;;;;;21.38;12.73;;;;;;;;;;5022567;28;25088;-76
2023/08/16 03:25:55;;;;;;;17.33;12.27;;;;;;;;;;5003337;28;25070;-77
2023/08/16 03:28:21;;;;;;;19.60;11.90;;;;;;;;;;5008645;28;25139;-76
2023/08/16 03:30:47;;;;;;;19.63;12.55;;;;;;;;;;5016750;28;25061;-75
2023/08/16 03:33:13;;;;;;;19.10;12.57;;;;;;;;;;5007648;28;25091;-76
2023/08/16 03:35:39;;;;;;;19.08;12.30;;;;;;;;;;5010133;28;25076;-76
2023/08/16 03:38:05;;;;;;;16.08;12.32;;;;;;;;;;4995820;28;25078;-76
2023/08/16 03:40:31;;;;;;;15.57;11.10;;;;;;;;;;5007026;28;25069;-75
2023/08/16 03:42:57;;;;;;;19.45;12.05;;;;;;;;;;5005278;28;25072;-76
2023/08/16 03:45:25;;;;;;;17.70;12.10;;;;;;;;;;5021933;28;25152;-76
2023/08/16 03:47:52;;;;;;;15.02;11.80;;;;;;;;;;5021441;28;25077;-76
2023/08/16 03:50:18;;;;;;;20.10;13.23;;;;;;;;;;5022415;28;25115;-76
2023/08/16 03:52:44;;;;;;;19.80;12.52;;;;;;;;;;5009109;28;25124;-76
2023/08/16 03:55:10;;;;;;;16.17;11.90;;;;;;;;;;5024370;28;25135;-76
2023/08/16 03:57:36;;;;;;;16.95;11.73;;;;;;;;;;5015669;28;25151;-77
2023/08/16 04:00:03;;;;;;;19.45;12.65;;;;;;;;;;5012697;28;25059;-75
2023/08/16 04:02:29;;;;;;;17.45;12.45;;;;;;;;;;5017886;28;25077;-78
2023/08/16 04:04:56;;;;;;;21.83;12.80;;;;;;;;;;5026340;28;25060;-75
2023/08/16 04:07:22;;;;;;;19.15;13.05;;;;;;;;;;5011251;28;25098;-77
2023/08/16 04:09:48;;;;;;;21.75;13.65;;;;;;;;;;5009654;28;25143;-75
2023/08/16 04:12:14;;;;;;;16.80;13.38;;;;;;;;;;5009265;28;25083;-77
2023/08/16 04:14:41;;;;;;;19.67;13.35;;;;;;;;;;5000928;28;25086;-76
2023/08/16 04:17:07;;;;;;;21.70;13.57;;;;;;;;;;5005435;28;25083;-75
2023/08/16 04:19:33;;;;;;;17.98;13.75;;;;;;;;;;5001669;28;25068;-76
2023/08/16 04:21:59;;;;;;;17.63;13.02;;;;;;;;;;5017766;28;25077;-76
2023/08/16 04:24:25;;;;;;;18.75;13.27;;;;;;;;;;5007130;28;25080;-75
2023/08/16 04:26:51;;;;;;;19.02;14.25;;;;;;;;;;5012516;28;25148;-76
2023/08/16 04:29:17;;;;;;;21.35;14.32;;;;;;;;;;5019408;28;25063;-76
2023/08/16 04:31:43;;;;;;;18.90;13.05;;;;;;;;;;5022330;28;25059;-77
2023/08/16 04:34:09;;;;;;;21.02;14.73;;;;;;;;;;5015063;28;25067;-76
2023/08/16 04:36:35;;;;;;;21.25;15.90;;;;;;;;;;5030529;28;25100;-77
2023/08/16 04:39:01;;;;;;;25.23;15.27;;;;;;;;;;5032130;28;25052;-78
2023/08/16 04:41:27;;;;;;;20.40;13.73;;;;;;;;;;5034725;28;25073;-78
2023/08/16 04:43:53;;;;;;;21.48;14.02;;;;;;;;;;5021615;28;25077;-76
2023/08/16 04:46:19;;;;;;;26.90;15.10;;;;;;;;;;5020316;28;25092;-80
2023/08/16 04:48:45;;;;;;;24.75;15.52;;;;;;;;;;5015236;28;25057;-78
2023/08/16 04:51:11;;;;;;;19.70;14.13;;;;;;;;;;5015382;28;25071;-77
2023/08/16 04:53:37;;;;;;;21.27;14.02;;;;;;;;;;5010842;28;25099;-75
2023/08/16 04:56:03;;;;;;;26.98;14.95;;;;;;;;;;5015349;28;25088;-77
2023/08/16 04:58:29;;;;;;;24.15;15.30;;;;;;;;;;5015596;28;25055;-75
2023/08/16 05:00:55;;;;;;;22.00;14.77;;;;;;;;;;5004289;28;25072;-76
2023/08/16 05:03:21;;;;;;;23.90;13.95;;;;;;;;;;5009378;28;25174;-76
2023/08/16 05:05:47;;;;;;;20.30;12.63;;;;;;;;;;5007725;28;25065;-78
2023/08/16 05:08:14;;;;;;;23.60;11.65;;;;;;;;;;5015463;28;25057;-77
2023/08/16 05:10:40;;;;;;;32.03;13.50;;;;;;;;;;5019453;28;25130;-75
2023/08/16 05:13:06;;;;;;;17.60;12.15;;;;;;;;;;5011156;28;25093;-74
2023/08/16 05:15:32;;;;;;;21.38;14.48;;;;;;;;;;5010446;28;25073;-77
2023/08/16 05:17:58;;;;;;;19.05;12.82;;;;;;;;;;5026317;28;25081;-77
2023/08/16 05:20:24;;;;;;;20.17;13.10;;;;;;;;;;5019480;28;25149;-77
2023/08/16 05:22:50;;;;;;;18.65;11.90;;;;;;;;;;5011925;28;25139;-78
2023/08/16 05:25:16;;;;;;;18.77;11.15;;;;;;;;;;5021629;28;25057;-76
2023/08/16 05:27:42;;;;;;;21.55;12.40;;;;;;;;;;4989034;28;25056;-76
2023/08/16 05:30:08;;;;;;;17.85;11.05;;;;;;;;;;5018433;28;25057;-73
2023/08/16 05:32:34;;;;;;;20.13;10.10;;;;;;;;;;5010578;28;25055;-76
2023/08/16 05:35:00;;;;;;;15.55;10.27;;;;;;;;;;5015269;28;25164;-76
2023/08/16 05:37:26;;;;;;;21.73;10.30;;;;;;;;;;5001359;28;25088;-76
2023/08/16 05:39:52;;;;;;;39.28;11.73;;;;;;;;;;5006594;28;25074;-76
2023/08/16 05:42:18;;;;;;;22.58;8.30;;;;;;;;;;5024261;28;25074;-78
2023/08/16 05:44:44;;;;;;;25.23;8.82;;;;;;;;;;5030210;28;25105;-76
2023/08/16 05:47:10;;;;;;;25.02;8.52;;;;;;;;;;5026750;28;25049;-77
2023/08/16 05:49:36;;;;;;;12.27;8.00;;;;;;;;;;5030418;28;25073;-78
2023/08/16 05:52:02;;;;;;;13.50;8.32;;;;;;;;;;5025265;28;25068;-79
2023/08/16 05:54:28;;;;;;;19.02;8.10;;;;;;;;;;5030261;28;25148;-78
2023/08/16 05:56:53;;;;;;;11.95;7.43;;;;;;;;;;5003406;28;25069;-77
2023/08/16 05:59:19;;;;;;;13.43;7.93;;;;;;;;;;5002555;28;25070;-77
2023/08/16 06:01:45;;;;;;;14.40;7.47;;;;;;;;;;5007784;28;25070;-77
2023/08/16 06:04:11;;;;;;;11.68;7.68;;;;;;;;;;5009938;28;25076;-75
2023/08/16 06:06:37;;;;;;;20.98;7.05;;;;;;;;;;5009061;28;25070;-77
2023/08/16 06:09:04;;;;;;;16.45;7.10;;;;;;;;;;5005392;28;25131;-77
2023/08/16 06:11:30;;;;;;;9.13;6.55;;;;;;;;;;4995138;28;25085;-78
2023/08/16 06:13:55;;;;;;;9.80;6.65;;;;;;;;;;5011121;28;25089;-75
2023/08/16 06:16:22;;;;;;;13.25;6.63;;;;;;;;;;5002720;28;25090;-77
2023/08/16 06:18:49;;;;;;;11.02;6.22;;;;;;;;;;5004468;28;25074;-77
2023/08/16 06:21:15;;;;;;;14.63;7.68;;;;;;;;;;5005602;28;25116;-77
2023/08/16 06:23:42;;;;;;;11.07;6.93;;;;;;;;;;5000858;28;25144;-77
2023/08/16 06:26:08;;;;;;;11.10;6.55;;;;;;;;;;5001134;28;25132;-76
2023/08/16 06:28:34;;;;;;;17.70;6.88;;;;;;;;;;5004111;28;25163;-77
2023/08/16 06:31:00;;;;;;;17.05;7.10;;;;;;;;;;5018136;28;25074;-78
2023/08/16 06:33:26;;;;;;;14.45;7.82;;;;;;;;;;5011006;28;25477;-77
2023/08/16 06:35:52;;;;;;;17.05;6.75;;;;;;;;;;5004113;28;25073;-78
2023/08/16 06:38:18;;;;;;;18.50;7.10;;;;;;;;;;5003904;28;25062;-77
2023/08/16 06:40:44;;;;;;;9.73;6.80;;;;;;;;;;4996162;28;25053;-76
2023/08/16 06:43:10;;;;;;;10.70;6.22;;;;;;;;;;5007756;28;25098;-77
2023/08/16 06:45:36;;;;;;;8.30;5.82;;;;;;;;;;5004600;28;25074;-75
2023/08/16 06:48:03;;;;;;;12.95;6.20;;;;;;;;;;5008494;28;25082;-75
2023/08/16 06:50:29;;;;;;;7.88;4.82;;;;;;;;;;5002437;28;25068;-78
2023/08/16 06:52:55;;;;;;;9.20;6.03;;;;;;;;;;4997002;28;25079;-76
2023/08/16 06:55:22;;;;;;;15.60;6.18;;;;;;;;;;5021977;28;25142;-75
2023/08/16 06:57:48;;;;;;;12.15;6.10;;;;;;;;;;5016680;28;25069;-76
2023/08/16 07:00:17;;;;;;;12.35;6.15;;;;;;;;;;5014237;28;25098;-76
2023/08/16 07:02:43;;;;;;;11.30;5.82;;;;;;;;;;5022236;28;25044;-76
2023/08/16 07:05:11;;;;;;;10.75;6.50;;;;;;;;;;5011908;28;25059;-75
2023/08/16 07:07:37;;;;;;;9.98;6.13;;;;;;;;;;5012383;28;25061;-77
2023/08/16 07:10:03;;;;;;;10.07;6.10;;;;;;;;;;5018672;28;25069;-75
2023/08/16 07:12:29;;;;;;;14.27;6.47;;;;;;;;;;5008634;28;25136;-76
2023/08/16 07:14:55;;;;;;;14.48;6.82;;;;;;;;;;5013585;28;25130;-75
2023/08/16 07:17:21;;;;;;;8.77;5.70;;;;;;;;;;5013432;28;25066;-76
2023/08/16 07:19:48;;;;;;;10.02;5.03;;;;;;;;;;4994953;28;25143;-76
2023/08/16 07:22:14;;;;;;;10.30;5.63;;;;;;;;;;5014292;28;25148;-74
2023/08/16 07:24:40;;;;;;;7.07;4.65;;;;;;;;;;5013721;28;25155;-72
2023/08/16 07:27:06;;;;;;;10.52;5.47;;;;;;;;;;4998208;28;25148;-74
2023/08/16 07:29:32;;;;;;;8.93;5.15;;;;;;;;;;5011962;28;25078;-76
2023/08/16 07:31:58;;;;;;;7.38;4.25;;;;;;;;;;5007821;28;25153;-75
2023/08/16 07:34:24;;;;;;;7.28;4.70;;;;;;;;;;5010926;28;25155;-75
2023/08/16 07:36:50;;;;;;;7.55;4.85;;;;;;;;;;5011645;28;25094;-75
2023/08/16 07:39:16;;;;;;;10.77;5.22;;;;;;;;;;5000221;28;25078;-77
2023/08/16 07:41:42;;;;;;;9.27;4.78;;;;;;;;;;5001008;28;25068;-74
2023/08/16 07:44:09;;;;;;;7.53;4.43;;;;;;;;;;5014750;28;25090;-74
2023/08/16 07:46:35;;;;;;;4.85;3.67;;;;;;;;;;5006279;28;25072;-73
2023/08/16 07:49:00;;;;;;;5.60;4.05;;;;;;;;;;5008468;28;25056;-74
2023/08/16 07:51:28;;;;;;;6.20;3.83;;;;;;;;;;5005731;28;25083;-77
2023/08/16 07:53:53;;;;;;;12.65;5.00;;;;;;;;;;5003833;28;25085;-77
2023/08/16 07:56:19;;;;;;;8.35;4.47;;;;;;;;;;5010564;28;25094;-75
2023/08/16 07:58:45;;;;;;;4.07;3.40;;;;;;;;;;5015335;28;25083;-78
2023/08/16 08:01:12;;;;;;;12.02;3.92;;;;;;;;;;5014095;28;25091;-74
2023/08/16 08:03:38;;;;;;;9.05;4.10;;;;;;;;;;5007989;28;25056;-76
2023/08/16 08:06:04;;;;;;;9.95;4.95;;;;;;;;;;5016429;28;25058;-75
2023/08/16 08:08:31;;;;;;;4.32;2.88;;;;;;;;;;5020056;28;25051;-75
2023/08/16 08:10:57;;;;;;;7.20;3.70;;;;;;;;;;5013022;28;25137;-75
2023/08/16 08:13:23;;;;;;;6.03;3.15;;;;;;;;;;5024039;28;25056;-74
2023/08/16 08:15:49;;;;;;;5.60;2.38;;;;;;;;;;5007449;28;25065;-75
2023/08/16 08:18:15;;;;;;;7.78;3.00;;;;;;;;;;5015658;28;25148;-74
2023/08/16 08:20:41;;;;;;;4.32;2.38;;;;;;;;;;5018716;28;25116;-75
2023/08/16 08:23:07;;;;;;;7.05;1.77;;;;;;;;;;5008400;28;25143;-76
2023/08/16 08:25:34;;;;;;;3.42;2.20;;;;;;;;;;5022035;28;25133;-77
2023/08/16 08:28:00;;;;;;;4.88;1.65;;;;;;;;;;5015225;28;25099;-77
2023/08/16 08:30:26;;;;;;;5.10;1.92;;;;;;;;;;5015585;28;25105;-76
2023/08/16 08:32:54;;;;;;;4.50;1.95;;;;;;;;;;5005572;28;25080;-76
2023/08/16 08:35:20;;;;;;;2.30;1.70;;;;;;;;;;5004857;28;25104;-75
2023/08/16 08:37:46;;;;;;;4.20;1.40;;;;;;;;;;5015223;28;25068;-74
2023/08/16 08:40:12;;;;;;;3.15;1.33;;;;;;;;;;5000059;28;25064;-75
2023/08/16 08:42:40;;;;;;;3.13;1.10;;;;;;;;;;5009621;28;25103;-75
2023/08/16 08:45:06;;;;;;;2.35;1.15;;;;;;;;;;5004578;28;25060;-76
2023/08/16 08:47:32;;;;;;;2.58;1.10;;;;;;;;;;5011153;28;25097;-75
2023/08/16 08:49:59;;;;;;;4.22;1.73;;;;;;;;;;5015261;28;25060;-76
2023/08/16 08:52:26;;;;;;;2.03;1.30;;;;;;;;;;5018030;28;25080;-74
2023/08/16 08:54:52;;;;;;;3.05;1.30;;;;;;;;;;5005727;28;25069;-77
2023/08/16 08:57:19;;;;;;;2.25;1.25;;;;;;;;;;5002842;28;25096;-75
2023/08/16 08:59:49;;;;;;;2.40;1.40;;;;;;;;;;4998803;28;25060;-77
2023/08/16 09:02:15;;;;;;;1.50;1.00;;;;;;;;;;5011898;28;25092;-75
2023/08/16 09:04:43;;;;;;;3.28;1.30;;;;;;;;;;5007493;28;25077;-76
2023/08/16 09:07:11;;;;;;;4.38;1.45;;;;;;;;;;4998181;28;25130;-75
2023/08/16 09:09:37;;;;;;;4.07;1.30;;;;;;;;;;5006698;28;25070;-78
2023/08/16 09:12:03;;;;;;;3.67;1.25;;;;;;;;;;5012769;28;25097;-74
2023/08/16 09:14:30;;;;;;;5.03;1.30;;;;;;;;;;5021749;28;25065;-75
2023/08/16 09:16:56;;;;;;;1.95;0.90;;;;;;;;;;5005348;28;25070;-76
2023/08/16 09:19:22;;;;;;;3.33;1.35;;;;;;;;;;5012527;28;25068;-76
2023/08/16 09:21:51;;;;;;;3.38;0.98;;;;;;;;;;5013748;28;25062;-74
2023/08/16 09:24:23;;;;;;;1.98;1.20;;;;;;;;;;5023249;28;25091;-77
2023/08/16 09:26:49;;;;;;;1.65;0.80;;;;;;;;;;5005994;28;25065;-75
2023/08/16 09:29:20;;;;;;;2.00;0.80;;;;;;;;;;5001879;28;25074;-77
2023/08/16 09:31:46;;;;;;;2.80;1.42;;;;;;;;;;5010667;28;25042;-76
2023/08/16 09:34:13;;;;;;;4.05;1.10;;;;;;;;;;5015862;28;25053;-76
2023/08/16 09:36:42;;;;;;;1.55;0.93;;;;;;;;;;5009222;28;25170;-75
2023/08/16 09:39:09;;;;;;;3.67;1.05;;;;;;;;;;5006259;28;25067;-75
2023/08/16 09:41:35;;;;;;;2.05;0.90;;;;;;;;;;4999917;28;25072;-75
2023/08/16 09:44:08;;;;;;;3.95;1.40;;;;;;;;;;5001533;28;25060;-75
2023/08/16 09:46:35;;;;;;;3.70;1.02;;;;;;;;;;5001063;28;25156;-74
2023/08/16 09:49:06;;;;;;;1.30;0.93;;;;;;;;;;5015713;28;25071;-76
2023/08/16 09:51:33;;;;;;;3.10;1.05;;;;;;;;;;5017472;28;25082;-76
2023/08/16 09:54:00;;;;;;;3.45;1.25;;;;;;;;;;5009114;28;25096;-74
2023/08/16 09:56:27;;;;;;;6.30;1.40;;;;;;;;;;5014821;28;25069;-75
2023/08/16 09:58:53;;;;;;;5.90;1.33;;;;;;;;;;5014311;28;25053;-75
2023/08/16 10:01:20;;;;;;;2.42;1.40;;;;;;;;;;5015976;28;25053;-76
2023/08/16 10:03:50;;;;;;;3.25;1.10;;;;;;;;;;5023618;28;25065;-74
2023/08/16 10:06:16;;;;;;;3.90;1.45;;;;;;;;;;5034544;28;25080;-75
2023/08/16 10:08:42;;;;;;;2.28;1.10;;;;;;;;;;5020784;28;25090;-75
2023/08/16 10:11:09;;;;;;;3.80;1.55;;;;;;;;;;5019665;28;25111;-74
2023/08/16 10:13:35;;;;;;;1.13;1.00;;;;;;;;;;5007800;28;25141;-74
2023/08/16 10:16:01;;;;;;;1.83;1.10;;;;;;;;;;5012294;28;25135;-73
2023/08/16 10:18:28;;;;;;;5.43;1.10;;;;;;;;;;5021549;28;25071;-75
2023/08/16 10:20:59;;;;;;;4.15;1.45;;;;;;;;;;5009122;28;25059;-74
2023/08/16 10:23:26;;;;;;;3.67;1.20;;;;;;;;;;5013196;28;25177;-76
2023/08/16 10:25:53;;;;;;;1.45;1.20;;;;;;;;;;5029174;28;25636;-76
2023/08/16 10:28:24;;;;;;;3.90;1.50;;;;;;;;;;5030470;28;25091;-74
2023/08/16 10:30:52;;;;;;;3.05;1.40;;;;;;;;;;5017223;28;25094;-74
2023/08/16 10:33:20;;;;;;;4.20;1.35;;;;;;;;;;5016310;28;25066;-75
2023/08/16 10:35:50;;;;;;;4.15;1.50;;;;;;;;;;5023532;28;25092;-73
2023/08/16 10:38:18;;;;;;;2.58;1.40;;;;;;;;;;5023440;28;25065;-73
2023/08/16 10:40:55;;;;;;;5.07;1.55;;;;;;;;;;5020882;28;25061;-75
2023/08/16 10:43:31;;;;;;;4.85;1.70;;;;;;;;;;5025954;28;25061;-75
2023/08/16 10:45:57;;;;;;;2.88;1.50;;;;;;;;;;5025816;28;25056;-73
2023/08/16 10:48:23;;;;;;;6.53;1.17;;;;;;;;;;5032328;28;25099;-74
2023/08/16 10:50:56;;;;;;;4.05;1.50;;;;;;;;;;5018422;28;25090;-74
2023/08/16 10:53:25;;;;;;;6.50;1.92;;;;;;;;;;5025952;28;25086;-73
2023/08/16 10:55:53;;;;;;;31.27;4.15;;;;;;;;;;5035289;28;25085;-75
2023/08/16 10:58:23;;;;;;;8.25;2.17;;;;;;;;;;5033919;28;25059;-75
2023/08/16 11:00:55;;;;;;;2.70;1.17;;;;;;;;;;5041982;28;25085;-75
2023/08/16 11:03:21;;;;;;;3.63;1.35;;;;;;;;;;5027878;28;25162;-75
2023/08/16 11:05:47;;;;;;;13.40;2.42;;;;;;;;;;5025023;28;25093;-74
2023/08/16 11:08:15;;;;;;;38.13;6.50;;;;;;;;;;5027607;28;25069;-74
2023/08/16 11:10:42;;;;;;;2.10;0.90;;;;;;;;;;5026507;28;25449;-74
2023/08/16 11:13:10;;;;;;;1.85;0.70;;;;;;;;;;5021678;28;25110;-74
2023/08/16 11:15:36;;;;;;;4.72;1.17;;;;;;;;;;5015878;28;25057;-74
2023/08/16 11:18:02;;;;;;;2.78;1.42;;;;;;;;;;5015221;28;25082;-74
2023/08/16 11:20:29;;;;;;;5.28;0.90;;;;;;;;;;5026888;28;25145;-74
2023/08/16 11:22:58;;;;;;;1.65;1.13;;;;;;;;;;5020183;28;25062;-73
2023/08/16 11:25:33;;;;;;;4.15;1.30;;;;;;;;;;5032034;28;25055;-73
2023/08/16 11:28:05;;;;;;;3.08;0.85;;;;;;;;;;5019811;28;25062;-75
2023/08/16 11:30:31;;;;;;;;;;;;;;;;;;5017271;28;25083;-75
2023/08/16 11:32:57;;;;;;;3.78;0.90;;;;;;;;;;5021666;28;24104;-77
2023/08/16 11:35:23;;;;;;;1.88;0.98;;;;;;;;;;5015249;28;25116;-75
2023/08/16 11:37:50;;;;;;;2.05;0.65;;;;;;;;;;5016050;28;25141;-75
2023/08/16 11:40:23;;;;;;;3.50;1.05;;;;;;;;;;5021620;28;25081;-75
2023/08/16 11:42:50;;;;;;;1.35;1.10;;;;;;;;;;5013356;28;25095;-72
2023/08/16 11:45:18;;;;;;;2.08;0.82;;;;;;;;;;5015564;28;25053;-73
2023/08/16 11:47:44;;;;;;;3.17;1.00;;;;;;;;;;5020208;28;25178;-74
2023/08/16 11:50:10;;;;;;;4.72;0.90;;;;;;;;;;5017913;28;25088;-74
2023/08/16 11:52:36;;;;;;;2.45;1.05;;;;;;;;;;5013449;28;25085;-73
2023/08/16 11:55:05;;;;;;;3.33;1.02;;;;;;;;;;5014499;28;25104;-73
2023/08/16 11:57:31;;;;;;;2.05;1.00;;;;;;;;;;5031384;28;25061;-75
2023/08/16 11:59:57;;;;;;;1.60;1.00;;;;;;;;;;5024068;28;25083;-72
2023/08/16 12:02:24;;;;;;;2.65;1.17;;;;;;;;;;5021864;28;25107;-73
2023/08/16 12:04:51;;;;;;;4.22;1.45;;;;;;;;;;5026893;28;25051;-74
2023/08/16 12:07:17;;;;;;;3.05;1.25;;;;;;;;;;5025524;28;25069;-73
2023/08/16 12:09:43;;;;;;;2.08;1.00;;;;;;;;;;5019820;28;25052;-73
2023/08/16 12:12:10;;;;;;;5.53;1.33;;;;;;;;;;5020170;28;25098;-72
2023/08/16 12:14:36;;;;;;;2.38;0.90;;;;;;;;;;5014715;28;25113;-75
2023/08/16 12:17:02;;;;;;;1.80;1.08;;;;;;;;;;5032005;28;25081;-73
2023/08/16 12:19:28;;;;;;;6.05;1.20;;;;;;;;;;5011219;28;25087;-73
2023/08/16 12:21:54;;;;;;;2.88;0.82;;;;;;;;;;5013204;28;25049;-74
2023/08/16 12:24:20;;;;;;;3.17;1.20;;;;;;;;;;5017037;28;25057;-75
2023/08/16 12:26:47;;;;;;;2.80;1.20;;;;;;;;;;5015163;28;25071;-75
2023/08/16 12:29:13;;;;;;;5.10;1.40;;;;;;;;;;5009999;28;25064;-74
2023/08/16 12:31:39;;;;;;;2.28;0.85;;;;;;;;;;5012988;28;25077;-74
2023/08/16 12:34:05;;;;;;;2.65;0.75;;;;;;;;;;5011481;28;25068;-73
2023/08/16 12:36:31;;;;;;;2.83;0.90;;;;;;;;;;5010669;28;25069;-74
2023/08/16 12:38:57;;;;;;;7.63;1.50;;;;;;;;;;5001627;28;25063;-72
2023/08/16 12:41:23;;;;;;;5.28;1.08;;;;;;;;;;5010821;28;25078;-73
2023/08/16 12:43:51;;;;;;;2.75;1.30;;;;;;;;;;5001531;28;25060;-75
2023/08/16 12:46:17;;;;;;;4.07;1.10;;;;;;;;;;5010017;28;25048;-73
2023/08/16 12:48:45;;;;;;;3.30;0.98;;;;;;;;;;5014526;28;25074;-76
2023/08/16 12:51:11;;;;;;;2.17;0.88;;;;;;;;;;5013418;28;25060;-75
2023/08/16 12:53:37;;;;;;;1.38;1.00;;;;;;;;;;5004384;28;25066;-74
2023/08/16 12:56:03;;;;;;;2.95;0.63;;;;;;;;;;5016531;28;25066;-73
2023/08/16 12:58:29;;;;;;;6.63;1.20;;;;;;;;;;5016984;28;25105;-74
2023/08/16 13:00:55;;;;;;;1.13;0.70;;;;;;;;;;5017254;28;25099;-74
2023/08/16 13:03:21;;;;;;;1.80;0.80;;;;;;;;;;5018993;28;25062;-74
2023/08/16 13:05:47;;;;;;;2.78;0.80;;;;;;;;;;5029210;28;25119;-75
2023/08/16 13:08:14;;;;;;;1.67;0.60;;;;;;;;;;5027302;28;25062;-73
2023/08/16 13:10:40;;;;;;;3.15;1.02;;;;;;;;;;5026928;28;25061;-73
2023/08/16 13:13:06;;;;;;;2.88;0.85;;;;;;;;;;5008921;28;25107;-75
2023/08/16 13:15:33;;;;;;;3.28;0.90;;;;;;;;;;5017995;28;25072;-77
2023/08/16 13:17:59;;;;;;;2.97;0.75;;;;;;;;;;5023976;28;25045;-73
2023/08/16 13:20:27;;;;;;;0.93;0.88;;;;;;;;;;5003451;28;25112;-74
2023/08/16 13:22:53;;;;;;;1.48;0.80;;;;;;;;;;5004475;28;25059;-73
2023/08/16 13:25:19;;;;;;;2.53;1.05;;;;;;;;;;5015844;28;25084;-75
2023/08/16 13:27:45;;;;;;;2.50;0.90;;;;;;;;;;5011524;28;25074;-74
2023/08/16 13:30:11;;;;;;;1.95;1.02;;;;;;;;;;5013528;28;25055;-75
2023/08/16 13:32:37;;;;;;;1.88;1.15;;;;;;;;;;5008198;28;25151;-76
2023/08/16 13:35:03;;;;;;;3.65;0.90;;;;;;;;;;5009245;28;25059;-73
2023/08/16 13:37:29;;;;;;;3.42;0.77;;;;;;;;;;5013911;28;25153;-73
2023/08/16 13:39:55;;;;;;;1.48;0.63;;;;;;;;;;5007833;28;25107;-74
2023/08/16 13:42:22;;;;;;;4.15;0.90;;;;;;;;;;5016071;28;25099;-73
2023/08/16 13:44:48;;;;;;;0.40;0.40;;;;;;;;;;5015840;28;25081;-77
2023/08/16 13:47:13;;;;;;;4.35;0.70;;;;;;;;;;5014049;28;25081;-74
2023/08/16 13:49:40;;;;;;;0.82;0.50;;;;;;;;;;5008793;28;25086;-73
2023/08/16 13:52:07;;;;;;;0.90;0.60;;;;;;;;;;5006637;28;25085;-74
2023/08/16 13:54:33;;;;;;;1.42;0.75;;;;;;;;;;5013766;28;25060;-74
2023/08/16 13:56:59;;;;;;;1.20;0.88;;;;;;;;;;5003168;28;25056;-73
2023/08/16 13:59:25;;;;;;;3.03;0.80;;;;;;;;;;5012995;28;25166;-74
2023/08/16 14:01:52;;;;;;;0.52;0.52;;;;;;;;;;5003880;28;25122;-75
2023/08/16 14:04:18;;;;;;;1.85;0.68;;;;;;;;;;5008805;28;25109;-73
2023/08/16 14:06:44;;;;;;;3.65;0.75;;;;;;;;;;5021266;28;25091;-74
2023/08/16 14:09:10;;;;;;;0.65;0.43;;;;;;;;;;5009234;28;25130;-74
2023/08/16 14:11:36;;;;;;;2.78;0.88;;;;;;;;;;5006214;28;25076;-74
2023/08/16 14:14:02;;;;;;;1.48;0.60;;;;;;;;;;5019006;28;25062;-74
2023/08/16 14:16:28;;;;;;;2.00;1.00;;;;;;;;;;5013513;28;25065;-75
2023/08/16 14:18:56;;;;;;;0.82;0.73;;;;;;;;;;5010896;28;25060;-72
2023/08/16 14:21:22;;;;;;;4.65;1.02;;;;;;;;;;5016288;28;25068;-74
2023/08/16 14:23:48;;;;;;;3.08;1.08;;;;;;;;;;5019565;28;25148;-76
2023/08/16 14:26:18;;;;;;;0.63;0.63;;;;;;;;;;5018227;28;25110;-74
2023/08/16 14:28:44;;;;;;;2.90;0.75;;;;;;;;;;5008499;28;25081;-73